Time;durP1;ratioP1;P1;durP2;ratioP2;P2;SDS_P1;SDS_P2;PMS_P1;PMS_P2;Temp;Humidity;BMP_temperature;BMP_pressure;BME280_temperature;BME280_humidity;BME280_pressure;Samples;Min_cycle;Max_cycle;Signal;HPM_P1;HPM_P2
2021/04/17 00:01:50;0.00;0.00;0.62;0.00;0.00;0.62;6.43;2.93;;;23.80;19.80;;;;;;2277454;61;20696;-65
2021/04/17 00:04:17;0.00;0.00;0.62;0.00;0.00;0.62;4.23;2.13;;;23.80;19.80;;;;;;2277256;60;20368;-65
2021/04/17 00:06:44;0.00;0.00;0.62;0.00;0.00;0.62;3.10;2.43;;;23.80;19.80;;;;;;2276874;61;20407;-63
2021/04/17 00:09:15;0.00;0.00;0.62;0.00;0.00;0.62;2.67;2.40;;;23.80;19.80;;;;;;2277572;61;20404;-65
2021/04/17 00:11:44;0.00;0.00;0.62;0.00;0.00;0.62;3.60;2.50;;;23.80;19.80;;;;;;2277235;60;20620;-65
2021/04/17 00:14:15;0.00;0.00;0.62;0.00;0.00;0.62;2.50;1.80;;;23.70;19.70;;;;;;2277403;60;20371;-63
2021/04/17 00:16:42;0.00;0.00;0.62;0.00;0.00;0.62;3.30;2.70;;;23.70;19.70;;;;;;2278392;60;20355;-63
2021/04/17 00:19:09;0.00;0.00;0.62;0.00;0.00;0.62;2.77;2.37;;;23.70;19.70;;;;;;2277910;61;20717;-65
2021/04/17 00:21:35;0.00;0.00;0.62;0.00;0.00;0.62;2.63;2.27;;;23.70;20.20;;;;;;2277535;61;20743;-63
2021/04/17 00:24:03;0.00;0.00;0.62;0.00;0.00;0.62;2.60;2.10;;;23.60;19.60;;;;;;2278164;61;20738;-63
2021/04/17 00:26:31;0.00;0.00;0.62;0.00;0.00;0.62;2.90;2.20;;;23.60;19.60;;;;;;2277800;60;20430;-64
2021/04/17 00:28:58;0.00;0.00;0.62;0.00;0.00;0.62;2.60;1.53;;;23.60;19.60;;;;;;2277669;61;20435;-65
2021/04/17 00:31:25;0.00;0.00;0.62;0.00;0.00;0.62;2.70;2.30;;;23.60;19.60;;;;;;2278150;61;20367;-63
2021/04/17 00:33:51;0.00;0.00;0.62;0.00;0.00;0.62;3.10;2.03;;;23.60;19.60;;;;;;2277469;60;20368;-63
2021/04/17 00:36:18;0.00;0.00;0.62;0.00;0.00;0.62;4.43;2.20;;;23.50;19.50;;;;;;2277818;61;20356;-66
2021/04/17 00:38:44;0.00;0.00;0.62;0.00;0.00;0.62;3.30;2.30;;;23.50;20.00;;;;;;2277635;61;20587;-63
2021/04/17 00:41:11;0.00;0.00;0.62;0.00;0.00;0.62;3.10;2.17;;;23.50;19.50;;;;;;2277805;61;20383;-63
2021/04/17 00:43:39;0.00;0.00;0.62;0.00;0.00;0.62;3.40;2.43;;;23.50;19.50;;;;;;2277638;61;20416;-64
2021/04/17 00:46:05;0.00;0.00;0.62;0.00;0.00;0.62;2.60;1.67;;;23.40;19.40;;;;;;2278126;60;20431;-62
2021/04/17 00:48:33;0.00;0.00;0.62;0.00;0.00;0.62;3.80;2.13;;;23.40;19.40;;;;;;2278044;61;20352;-65
2021/04/17 00:51:00;0.00;0.00;0.62;0.00;0.00;0.62;2.63;2.10;;;23.40;19.40;;;;;;2277639;60;20359;-63
2021/04/17 00:53:27;0.00;0.00;0.62;0.00;0.00;0.62;1.67;1.50;;;23.40;19.40;;;;;;2278242;61;20368;-63
2021/04/17 00:55:56;0.00;0.00;0.62;0.00;0.00;0.62;3.40;2.40;;;23.30;19.30;;;;;;2277972;61;20363;-64
2021/04/17 00:58:23;0.00;0.00;0.62;0.00;0.00;0.62;2.73;1.90;;;23.30;19.40;;;;;;2277625;61;20352;-65
2021/04/17 01:00:50;0.00;0.00;0.62;0.00;0.00;0.62;2.97;1.80;;;23.30;19.40;;;;;;2278017;61;20618;-64
2021/04/17 01:03:23;0.00;0.00;0.62;0.00;0.00;0.62;2.63;2.03;;;23.30;19.40;;;;;;2278122;61;20643;-65
2021/04/17 01:05:57;0.00;0.00;0.62;0.00;0.00;0.62;2.50;2.20;;;23.30;19.40;;;;;;2277019;61;20352;-62
2021/04/17 01:08:34;0.00;0.00;0.62;0.00;0.00;0.62;4.03;2.30;;;23.20;19.30;;;;;;2278165;61;20685;-66
2021/04/17 01:11:06;0.00;0.00;0.62;0.00;0.00;0.62;2.77;1.80;;;23.20;19.30;;;;;;2277852;61;20358;-63
2021/04/17 01:13:34;0.00;0.00;0.62;0.00;0.00;0.62;3.20;2.30;;;23.20;19.30;;;;;;2277634;60;20376;-62
2021/04/17 01:16:04;0.00;0.00;0.62;0.00;0.00;0.62;2.80;1.77;;;23.20;19.40;;;;;;2278005;61;20356;-62
2021/04/17 01:18:32;0.00;0.00;0.62;0.00;0.00;0.62;2.60;2.00;;;23.10;19.30;;;;;;2277885;60;20613;-65
2021/04/17 01:20:59;0.00;0.00;0.62;0.00;0.00;0.62;2.80;1.97;;;23.10;19.30;;;;;;2276941;61;20378;-64
2021/04/17 01:23:33;0.00;0.00;0.62;0.00;0.00;0.62;2.37;1.70;;;23.10;19.30;;;;;;2278011;60;20382;-66
2021/04/17 01:26:03;0.00;0.00;0.62;0.00;0.00;0.62;4.20;2.40;;;23.10;19.80;;;;;;2277801;61;20355;-63
2021/04/17 01:28:34;0.00;0.00;0.62;0.00;0.00;0.62;3.03;1.77;;;23.10;19.30;;;;;;2277544;61;20552;-64
2021/04/17 01:31:03;0.00;0.00;0.62;0.00;0.00;0.62;2.70;1.80;;;23.00;19.20;;;;;;2277490;61;20433;-64
2021/04/17 01:33:33;0.00;0.00;0.62;0.00;0.00;0.62;3.07;1.80;;;23.00;19.20;;;;;;2277839;60;20416;-63
2021/04/17 01:36:02;0.00;0.00;0.62;0.00;0.00;0.62;3.23;1.97;;;23.00;19.30;;;;;;2277586;60;20367;-65
2021/04/17 01:38:32;0.00;0.00;0.62;0.00;0.00;0.62;4.10;2.10;;;23.00;19.30;;;;;;2277964;61;20395;-65
2021/04/17 01:41:06;0.00;0.00;0.62;0.00;0.00;0.62;2.10;1.70;;;23.00;19.30;;;;;;2277197;61;20387;-65
2021/04/17 01:43:33;0.00;0.00;0.62;0.00;0.00;0.62;2.00;1.47;;;23.00;19.80;;;;;;2277506;61;20401;-63
2021/04/17 01:46:11;0.00;0.00;0.62;0.00;0.00;0.62;2.53;1.93;;;22.90;19.20;;;;;;2277924;60;20784;-64
2021/04/17 01:48:38;0.00;0.00;0.62;0.00;0.00;0.62;2.70;2.10;;;22.90;19.20;;;;;;2277608;61;20728;-63
2021/04/17 01:51:06;0.00;0.00;0.62;0.00;0.00;0.62;2.67;1.80;;;22.90;19.20;;;;;;2277595;60;20376;-65
2021/04/17 01:53:38;0.00;0.00;0.62;0.00;0.00;0.62;3.90;1.97;;;22.90;19.20;;;;;;2277968;60;20601;-65
2021/04/17 01:56:07;0.00;0.00;0.62;0.00;0.00;0.62;2.83;2.00;;;22.80;19.10;;;;;;2277526;60;20367;-64
2021/04/17 01:58:38;0.00;0.00;0.62;0.00;0.00;0.62;2.93;2.27;;;22.80;19.20;;;;;;2277588;60;20439;-64
2021/04/17 02:01:05;0.00;0.00;0.62;0.00;0.00;0.62;2.50;2.17;;;22.80;19.10;;;;;;2277859;61;20391;-63
2021/04/17 02:03:32;0.00;0.00;0.62;0.00;0.00;0.62;2.33;2.10;;;22.80;19.20;;;;;;2277558;61;20455;-66
2021/04/17 02:05:59;0.00;0.00;0.62;0.00;0.00;0.62;2.77;2.00;;;22.80;19.20;;;;;;2277418;61;20362;-66
2021/04/17 02:08:26;0.00;0.00;0.62;0.00;0.00;0.62;4.10;2.40;;;22.70;19.10;;;;;;2277973;61;20382;-66
2021/04/17 02:10:57;0.00;0.00;0.62;0.00;0.00;0.62;3.50;2.63;;;22.70;19.10;;;;;;2277444;61;20431;-64
2021/04/17 02:13:24;0.00;0.00;0.62;0.00;0.00;0.62;6.10;2.50;;;22.70;19.10;;;;;;2277538;61;20376;-66
2021/04/17 02:15:51;0.00;0.00;0.62;0.00;0.00;0.62;4.60;2.43;;;22.70;19.10;;;;;;2278023;61;20355;-66
2021/04/17 02:18:26;0.00;0.00;0.62;0.00;0.00;0.62;2.77;2.20;;;22.70;19.10;;;;;;2277510;61;20365;-64
2021/04/17 02:21:02;0.00;0.00;0.62;0.00;0.00;0.62;2.87;2.30;;;22.60;19.00;;;;;;2277319;60;20382;-66
2021/04/17 02:23:30;0.00;0.00;0.62;0.00;0.00;0.62;4.70;2.00;;;22.60;19.00;;;;;;2277991;61;20374;-65
2021/04/17 02:25:58;0.00;0.00;0.62;0.00;0.00;0.62;2.33;1.97;;;22.60;19.10;;;;;;2277293;60;20417;-64
2021/04/17 02:28:27;0.00;0.00;0.62;0.00;0.00;0.62;3.10;2.07;;;22.60;19.10;;;;;;2277702;61;20362;-64
2021/04/17 02:30:54;0.00;0.00;0.62;0.00;0.00;0.62;3.90;2.70;;;22.60;19.10;;;;;;2277826;61;20363;-65
2021/04/17 02:33:21;0.00;0.00;0.62;0.00;0.00;0.62;3.23;2.17;;;22.60;19.10;;;;;;2277373;60;20379;-65
2021/04/17 02:35:48;0.00;0.00;0.62;0.00;0.00;0.62;2.60;1.97;;;22.50;19.00;;;;;;2277406;60;20355;-63
2021/04/17 02:38:15;0.00;0.00;0.62;0.00;0.00;0.62;2.90;2.00;;;22.50;19.50;;;;;;2277852;60;20366;-65
2021/04/17 02:40:42;0.00;0.00;0.62;0.00;0.00;0.62;2.27;1.73;;;22.50;19.00;;;;;;2277187;61;20634;-63
2021/04/17 02:43:09;0.00;0.00;0.62;0.00;0.00;0.62;3.60;2.40;;;22.50;19.00;;;;;;2277471;61;20375;-64
2021/04/17 02:45:36;0.00;0.00;0.62;0.00;0.00;0.62;2.97;1.77;;;22.50;19.00;;;;;;2277978;61;20359;-63
2021/04/17 02:48:05;0.00;0.00;0.62;0.00;0.00;0.62;2.97;2.20;;;22.50;19.10;;;;;;2277337;61;20411;-64
2021/04/17 02:50:31;0.00;0.00;0.62;0.00;0.00;0.62;2.30;1.80;;;22.40;19.00;;;;;;2276895;61;20401;-65
2021/04/17 02:52:58;0.00;0.00;0.62;0.00;0.00;0.62;3.00;2.30;;;22.40;19.00;;;;;;2277823;61;20375;-64
2021/04/17 02:55:25;0.00;0.00;0.62;0.00;0.00;0.62;4.77;2.33;;;22.40;19.00;;;;;;2277318;61;20670;-65
2021/04/17 02:57:51;0.00;0.00;0.62;0.00;0.00;0.62;2.60;1.73;;;22.40;19.00;;;;;;2277505;61;20359;-62
2021/04/17 03:00:24;0.00;0.00;0.62;0.00;0.00;0.62;2.67;2.23;;;22.40;19.00;;;;;;2277612;61;20359;-64
2021/04/17 03:02:52;0.00;0.00;0.62;0.00;0.00;0.62;3.40;2.10;;;22.30;18.90;;;;;;2277286;61;20373;-65
2021/04/17 03:05:19;0.00;0.00;0.62;0.00;0.00;0.62;2.87;1.90;;;22.30;19.00;;;;;;2277444;60;20463;-63
2021/04/17 03:07:46;0.00;0.00;0.62;0.00;0.00;0.62;3.57;1.73;;;22.30;19.00;;;;;;2277243;61;20350;-63
2021/04/17 03:10:14;0.00;0.00;0.62;0.00;0.00;0.62;2.50;2.17;;;22.30;19.00;;;;;;2277396;61;20404;-63
2021/04/17 03:12:40;0.00;0.00;0.62;0.00;0.00;0.62;2.70;1.90;;;22.30;19.00;;;;;;2277309;60;20608;-62
2021/04/17 03:15:09;0.00;0.00;0.62;0.00;0.00;0.62;3.07;2.20;;;22.30;19.00;;;;;;2277766;61;20496;-63
2021/04/17 03:17:36;0.00;0.00;0.62;0.00;0.00;0.62;2.80;1.77;;;22.30;19.00;;;;;;2276889;61;20365;-63
2021/04/17 03:20:07;0.00;0.00;0.62;0.00;0.00;0.62;3.50;2.20;;;22.20;18.90;;;;;;2276858;61;20356;-66
2021/04/17 03:22:35;0.00;0.00;0.62;0.00;0.00;0.62;2.97;1.60;;;22.20;19.00;;;;;;2277573;60;20611;-64
2021/04/17 03:25:03;0.00;0.00;0.62;0.00;0.00;0.62;3.43;2.00;;;22.20;19.00;;;;;;2277285;61;20358;-66
2021/04/17 03:27:29;0.00;0.00;0.62;0.00;0.00;0.62;2.60;1.90;;;22.20;19.00;;;;;;2277310;61;20366;-63
2021/04/17 03:29:56;0.00;0.00;0.62;0.00;0.00;0.62;2.70;1.93;;;22.20;19.00;;;;;;2277680;61;20365;-62
2021/04/17 03:32:22;0.00;0.00;0.62;0.00;0.00;0.62;1.63;1.53;;;22.10;18.90;;;;;;2277110;61;20371;-65
2021/04/17 03:34:49;0.00;0.00;0.62;0.00;0.00;0.62;1.70;1.40;;;22.10;18.90;;;;;;2277436;61;20350;-63
2021/04/17 03:37:16;0.00;0.00;0.62;0.00;0.00;0.62;4.70;2.50;;;22.10;18.90;;;;;;2277681;61;20739;-64
2021/04/17 03:39:43;0.00;0.00;0.62;0.00;0.00;0.62;2.27;1.90;;;22.10;18.90;;;;;;2277109;61;20366;-65
2021/04/17 03:42:10;0.00;0.00;0.62;0.00;0.00;0.62;2.80;1.83;;;22.00;18.90;;;;;;2277169;61;20753;-63
2021/04/17 03:44:36;0.00;0.00;0.62;0.00;0.00;0.62;3.80;2.20;;;22.10;18.90;;;;;;2277572;60;20437;-65
2021/04/17 03:47:03;0.00;0.00;0.62;0.00;0.00;0.62;4.53;2.40;;;22.00;18.90;;;;;;2277203;60;20550;-65
2021/04/17 03:49:30;0.00;0.00;0.62;0.00;0.00;0.62;3.50;2.20;;;22.00;18.90;;;;;;2277953;61;20368;-64
2021/04/17 03:51:56;0.00;0.00;0.62;0.00;0.00;0.62;2.80;2.03;;;22.00;18.90;;;;;;2278249;60;20464;-63
2021/04/17 03:54:24;0.00;0.00;0.62;0.00;0.00;0.62;3.10;2.17;;;22.00;18.90;;;;;;2277941;61;20427;-63
2021/04/17 03:56:51;0.00;0.00;0.62;0.00;0.00;0.62;3.83;2.23;;;21.90;18.80;;;;;;2278031;60;20702;-62
2021/04/17 03:59:17;0.00;0.00;0.62;0.00;0.00;0.62;2.97;2.10;;;22.00;18.90;;;;;;2278312;61;20351;-62
2021/04/17 04:01:44;0.00;0.00;0.62;0.00;0.00;0.62;3.63;2.20;;;21.90;18.90;;;;;;2277969;60;20383;-63
2021/04/17 04:04:10;0.00;0.00;0.62;0.00;0.00;0.62;2.47;2.17;;;21.90;18.90;;;;;;2277902;61;20378;-62
2021/04/17 04:06:37;0.00;0.00;0.62;0.00;0.00;0.62;2.40;1.90;;;21.90;18.90;;;;;;2278292;61;20364;-66
2021/04/17 04:09:05;0.00;0.00;0.62;0.00;0.00;0.62;2.30;1.97;;;21.90;18.90;;;;;;2278133;61;20397;-65
2021/04/17 04:11:32;0.00;0.00;0.62;0.00;0.00;0.62;2.47;1.90;;;21.90;18.90;;;;;;2277784;61;20347;-64
2021/04/17 04:13:59;0.00;0.00;0.62;0.00;0.00;0.62;2.27;2.00;;;21.80;18.90;;;;;;2278356;61;20406;-63
2021/04/17 04:16:26;0.00;0.00;0.62;0.00;0.00;0.62;3.07;2.40;;;21.80;18.80;;;;;;2278093;61;20358;-62
2021/04/17 04:18:52;0.00;0.00;0.62;0.00;0.00;0.62;3.10;2.73;;;21.80;18.90;;;;;;2277613;60;20355;-65
2021/04/17 04:21:19;0.00;0.00;0.62;0.00;0.00;0.62;3.43;1.73;;;21.80;18.90;;;;;;2277665;61;20386;-65
2021/04/17 04:23:46;0.00;0.00;0.62;0.00;0.00;0.62;2.27;1.83;;;21.80;18.90;;;;;;2278142;61;20373;-64
2021/04/17 04:26:12;0.00;0.00;0.62;0.00;0.00;0.62;2.10;1.87;;;21.80;18.90;;;;;;2277709;60;20359;-65
2021/04/17 04:28:40;0.00;0.00;0.62;0.00;0.00;0.62;3.37;2.20;;;21.80;18.90;;;;;;2278245;61;20366;-65
2021/04/17 04:31:06;0.00;0.00;0.62;0.00;0.00;0.62;3.10;1.90;;;21.70;18.80;;;;;;2278031;61;20422;-62
2021/04/17 04:33:33;0.00;0.00;0.62;0.00;0.00;0.62;2.63;1.97;;;21.70;18.80;;;;;;2277182;61;20374;-64
2021/04/17 04:35:59;0.00;0.00;0.62;0.00;0.00;0.62;2.37;2.00;;;21.70;18.80;;;;;;2278220;60;20400;-64
2021/04/17 04:38:26;0.00;0.00;0.62;0.00;0.00;0.62;2.60;2.10;;;21.70;18.90;;;;;;2278047;60;20573;-62
2021/04/17 04:40:52;0.00;0.00;0.62;0.00;0.00;0.62;2.33;2.03;;;21.70;18.90;;;;;;2277052;61;20374;-63
2021/04/17 04:43:19;0.00;0.00;0.62;0.00;0.00;0.62;2.53;1.73;;;21.70;18.90;;;;;;2278223;61;20534;-64
2021/04/17 04:45:46;0.00;0.00;0.62;0.00;0.00;0.62;2.63;2.43;;;21.70;18.90;;;;;;2277947;61;20671;-65
2021/04/17 04:48:14;0.00;0.00;0.62;0.00;0.00;0.62;4.80;2.23;;;21.70;18.80;;;;;;2277662;61;20353;-64
2021/04/17 04:50:40;0.00;0.00;0.62;0.00;0.00;0.62;4.30;1.77;;;21.60;18.80;;;;;;2278054;61;20445;-64
2021/04/17 04:53:07;0.00;0.00;0.62;0.00;0.00;0.62;2.10;1.90;;;21.60;18.80;;;;;;2277994;61;20393;-62
2021/04/17 04:55:34;0.00;0.00;0.62;0.00;0.00;0.62;4.13;2.30;;;21.60;18.80;;;;;;2277601;61;20363;-62
2021/04/17 04:58:00;0.00;0.00;0.62;0.00;0.00;0.62;2.97;1.93;;;21.60;18.90;;;;;;2278155;61;20359;-64
2021/04/17 05:00:27;0.00;0.00;0.62;0.00;0.00;0.62;5.60;2.50;;;21.60;18.90;;;;;;2277739;61;20578;-65
2021/04/17 05:02:55;0.00;0.00;0.62;0.00;0.00;0.62;2.97;2.20;;;21.60;18.90;;;;;;2277441;61;20735;-64
2021/04/17 05:05:21;0.00;0.00;0.62;0.00;0.00;0.62;3.80;2.20;;;21.60;18.90;;;;;;2278095;61;20359;-64
2021/04/17 05:07:48;0.00;0.00;0.62;0.00;0.00;0.62;3.17;2.07;;;21.50;18.80;;;;;;2277821;61;20355;-64
2021/04/17 05:10:15;0.00;0.00;0.62;0.00;0.00;0.62;2.13;1.73;;;21.50;18.90;;;;;;2277752;61;20444;-63
2021/04/17 05:12:41;0.00;0.00;0.62;0.00;0.00;0.62;4.37;2.23;;;21.50;18.90;;;;;;2277991;61;20373;-63
2021/04/17 05:15:09;0.00;0.00;0.62;0.00;0.00;0.62;2.90;2.33;;;21.50;18.90;;;;;;2277798;61;20352;-64
2021/04/17 05:17:35;0.00;0.00;0.62;0.00;0.00;0.62;3.83;2.27;;;21.50;18.90;;;;;;2277662;61;20357;-62
2021/04/17 05:20:05;0.00;0.00;0.62;0.00;0.00;0.62;3.17;2.13;;;21.40;18.80;;;;;;2278077;61;20354;-64
2021/04/17 05:22:32;0.00;0.00;0.62;0.00;0.00;0.62;2.10;1.80;;;21.40;18.80;;;;;;2277728;61;20750;-64
2021/04/17 05:24:59;0.00;0.00;0.62;0.00;0.00;0.62;2.23;1.70;;;21.40;18.80;;;;;;2277520;61;20564;-64
2021/04/17 05:27:25;0.00;0.00;0.62;0.00;0.00;0.62;6.83;2.50;;;21.40;18.80;;;;;;2278056;61;20589;-64
2021/04/17 05:29:52;0.00;0.00;0.62;0.00;0.00;0.62;2.20;1.90;;;21.40;18.80;;;;;;2277900;61;20359;-65
2021/04/17 05:32:18;0.00;0.00;0.62;0.00;0.00;0.62;2.83;2.03;;;21.40;18.90;;;;;;2277373;61;20370;-62
2021/04/17 05:34:45;0.00;0.00;0.62;0.00;0.00;0.62;2.13;1.40;;;21.40;18.90;;;;;;2278063;61;20697;-65
2021/04/17 05:37:13;0.00;0.00;0.62;0.00;0.00;0.62;2.23;1.90;;;21.40;18.90;;;;;;2277889;61;20593;-63
2021/04/17 05:39:40;0.00;0.00;0.62;0.00;0.00;0.62;3.20;2.40;;;21.40;19.00;;;;;;2276867;61;20442;-63
2021/04/17 05:42:08;0.00;0.00;0.62;0.00;0.00;0.62;2.47;1.93;;;21.40;19.00;;;;;;2277860;60;20378;-64
2021/04/17 05:44:35;0.00;0.00;0.62;0.00;0.00;0.62;2.07;1.60;;;21.30;18.90;;;;;;2277814;61;20350;-63
2021/04/17 05:47:01;0.00;0.00;0.62;0.00;0.00;0.62;2.33;1.73;;;21.30;18.90;;;;;;2277401;61;20357;-63
2021/04/17 05:49:28;0.00;0.00;0.62;0.00;0.00;0.62;3.47;1.77;;;21.30;18.90;;;;;;2278012;61;20685;-62
2021/04/17 05:51:54;0.00;0.00;0.62;0.00;0.00;0.62;4.20;2.23;;;21.30;19.00;;;;;;2277810;61;20363;-63
2021/04/17 05:54:22;0.00;0.00;0.62;0.00;0.00;0.62;2.97;2.17;;;21.30;19.10;;;;;;2276867;61;20464;-64
2021/04/17 05:56:58;;;;;;;;;;;;;;;;;;;;;
2021/04/17 05:59:25;0.00;0.00;0.62;0.00;0.00;0.62;2.57;2.13;;;21.30;19.50;;;;;;2270143;61;20557;-64
2021/04/17 06:01:52;0.00;0.00;0.62;0.00;0.00;0.62;5.13;2.30;;;21.30;19.00;;;;;;2277359;61;20374;-62
2021/04/17 06:04:18;0.00;0.00;0.62;0.00;0.00;0.62;2.77;2.30;;;21.30;19.10;;;;;;2277921;61;20355;-63
2021/04/17 06:06:45;0.00;0.00;0.62;0.00;0.00;0.62;2.50;2.30;;;21.30;19.10;;;;;;2277770;61;20355;-64
2021/04/17 06:09:13;0.00;0.00;0.62;0.00;0.00;0.62;2.80;2.17;;;21.20;19.00;;;;;;2277409;61;20439;-66
2021/04/17 06:11:41;0.00;0.00;0.62;0.00;0.00;0.62;2.60;2.23;;;21.30;19.10;;;;;;2277618;60;20374;-65
2021/04/17 06:14:08;0.00;0.00;0.62;0.00;0.00;0.62;2.80;1.97;;;21.20;19.00;;;;;;2277826;60;20385;-65
2021/04/17 06:16:35;0.00;0.00;0.62;0.00;0.00;0.62;3.03;2.17;;;21.30;19.20;;;;;;2277423;61;20361;-63
2021/04/17 06:19:01;0.00;0.00;0.62;0.00;0.00;0.62;3.77;2.70;;;21.30;19.70;;;;;;2277722;61;20576;-63
2021/04/17 06:21:28;0.00;0.00;0.62;0.00;0.00;0.62;3.30;2.33;;;21.30;19.30;;;;;;2277821;60;20631;-66
2021/04/17 06:23:54;0.00;0.00;0.62;0.00;0.00;0.62;2.93;1.80;;;21.30;19.40;;;;;;2277748;60;20413;-61
2021/04/17 06:26:21;0.00;0.00;0.62;0.00;0.00;0.62;2.90;2.23;;;21.20;19.40;;;;;;2277774;61;20609;-64
2021/04/17 06:28:50;0.00;0.00;0.62;0.00;0.00;0.62;4.73;3.20;;;21.20;19.50;;;;;;2277918;61;20402;-63
2021/04/17 06:31:18;0.00;0.00;0.62;0.00;0.00;0.62;4.50;2.70;;;21.30;19.60;;;;;;2276716;61;20767;-66
2021/04/17 06:33:45;0.00;0.00;0.62;0.00;0.00;0.62;2.57;2.10;;;21.30;19.70;;;;;;2278046;60;20383;-63
2021/04/17 06:36:12;0.00;0.00;0.62;0.00;0.00;0.62;3.40;2.30;;;21.30;19.70;;;;;;2277439;60;20365;-63
2021/04/17 06:38:38;0.00;0.00;0.62;0.00;0.00;0.62;3.20;2.83;;;21.20;19.60;;;;;;2277145;60;20595;-63
2021/04/17 06:41:07;0.00;0.00;0.62;0.00;0.00;0.62;3.10;2.23;;;21.30;19.70;;;;;;2277705;60;20381;-63
2021/04/17 06:43:36;0.00;0.00;0.62;0.00;0.00;0.62;2.77;1.80;;;21.20;19.60;;;;;;2277772;61;20727;-65
2021/04/17 06:46:04;0.00;0.00;0.62;0.00;0.00;0.62;2.63;1.90;;;21.30;19.70;;;;;;2277281;61;20356;-63
2021/04/17 06:48:37;0.00;0.00;0.62;0.00;0.00;0.62;3.10;2.00;;;21.30;19.70;;;;;;2277905;60;20366;-64
2021/04/17 06:51:04;0.00;0.00;0.62;0.00;0.00;0.62;2.70;2.20;;;21.30;19.70;;;;;;2277803;61;20351;-62
2021/04/17 06:53:33;0.00;0.00;0.62;0.00;0.00;0.62;3.17;2.10;;;21.30;19.70;;;;;;2277503;61;20374;-69
2021/04/17 06:56:01;0.00;0.00;0.62;0.00;0.00;0.62;2.57;2.10;;;21.30;19.70;;;;;;2277412;61;20599;-65
2021/04/17 06:58:27;0.00;0.00;0.62;0.00;0.00;0.62;4.00;2.37;;;21.30;19.70;;;;;;2277860;60;20359;-64
2021/04/17 07:00:54;0.00;0.00;0.62;0.00;0.00;0.62;2.57;1.93;;;21.30;19.70;;;;;;2277191;60;20354;-68
2021/04/17 07:03:22;0.00;0.00;0.62;0.00;0.00;0.62;3.87;2.60;;;21.30;19.70;;;;;;2277476;60;20416;-63
2021/04/17 07:05:50;0.00;0.00;0.62;0.00;0.00;0.62;4.50;2.33;;;21.30;19.70;;;;;;2277872;61;20697;-65
2021/04/17 07:08:17;0.00;0.00;0.62;0.00;0.00;0.62;3.23;2.10;;;21.30;19.70;;;;;;2277283;61;20358;-65
2021/04/17 07:10:44;0.00;0.00;0.62;0.00;0.00;0.62;3.33;2.30;;;21.30;19.70;;;;;;2277889;61;20399;-66
2021/04/17 07:13:13;0.00;0.00;0.62;0.00;0.00;0.62;2.77;2.30;;;21.30;19.70;;;;;;2277952;61;20449;-64
2021/04/17 07:15:42;0.00;0.00;0.62;0.00;0.00;0.62;3.70;2.13;;;21.30;19.70;;;;;;2277539;61;20747;-65
2021/04/17 07:18:30;0.00;0.00;0.62;0.00;0.00;0.62;2.77;2.13;;;21.30;19.70;;;;;;2277914;61;20354;-65
2021/04/17 07:21:00;0.00;0.00;0.62;0.00;0.00;0.62;3.10;2.30;;;21.30;19.70;;;;;;2277498;61;20579;-62
2021/04/17 07:23:42;0.00;0.00;0.62;0.00;0.00;0.62;4.30;2.20;;;21.30;19.70;;;;;;2277522;61;20423;-64
2021/04/17 07:26:13;0.00;0.00;0.62;0.00;0.00;0.62;5.00;2.70;;;21.30;19.60;;;;;;2278055;61;20359;-62
2021/04/17 07:28:42;0.00;0.00;0.62;0.00;0.00;0.62;3.03;2.33;;;21.30;19.60;;;;;;2277607;61;20385;-62
2021/04/17 07:31:15;0.00;0.00;0.62;0.00;0.00;0.62;4.60;2.37;;;21.20;19.50;;;;;;2277303;61;20352;-68
2021/04/17 07:33:42;0.00;0.00;0.62;0.00;0.00;0.62;5.30;2.47;;;21.30;19.60;;;;;;2277842;61;20452;-64
2021/04/17 07:36:09;0.00;0.00;0.62;0.00;0.00;0.62;4.37;2.13;;;21.30;19.70;;;;;;2277555;61;20438;-63
2021/04/17 07:38:37;0.00;0.00;0.62;0.00;0.00;0.62;13.20;2.43;;;21.30;19.70;;;;;;2277465;61;20353;-63
2021/04/17 07:41:09;0.00;0.00;0.62;0.00;0.00;0.62;3.10;2.00;;;21.20;19.60;;;;;;2277621;61;20443;-63
2021/04/17 07:43:51;0.00;0.00;0.62;0.00;0.00;0.62;3.53;2.20;;;21.30;19.70;;;;;;2277006;61;20456;-63
2021/04/17 07:46:22;0.00;0.00;0.62;0.00;0.00;0.62;2.33;1.77;;;21.30;19.70;;;;;;2277463;60;20358;-66
2021/04/17 07:48:52;0.00;0.00;0.62;0.00;0.00;0.62;2.90;2.10;;;21.30;19.70;;;;;;2277751;60;20362;-65
2021/04/17 07:51:19;0.00;0.00;0.62;0.00;0.00;0.62;2.40;1.53;;;21.30;19.70;;;;;;2277494;61;20599;-65
2021/04/17 07:53:46;0.00;0.00;0.62;0.00;0.00;0.62;1.97;1.50;;;21.30;19.70;;;;;;2277056;61;20604;-66
2021/04/17 07:56:32;0.00;0.00;0.62;0.00;0.00;0.62;2.17;1.73;;;21.30;19.70;;;;;;2277764;61;20456;-65
2021/04/17 07:59:02;0.00;0.00;0.62;0.00;0.00;0.62;4.57;2.10;;;21.30;19.70;;;;;;2277438;61;20355;-64
2021/04/17 08:01:31;0.00;0.00;0.62;0.00;0.00;0.62;2.00;1.50;;;21.30;19.70;;;;;;2277409;61;20384;-62
2021/04/17 08:04:01;0.00;0.00;0.62;0.00;0.00;0.62;2.40;1.70;;;21.40;19.80;;;;;;2277705;61;20379;-62
2021/04/17 08:06:29;0.00;0.00;0.62;0.00;0.00;0.62;2.00;1.70;;;21.40;19.80;;;;;;2277508;61;20549;-63
2021/04/17 08:08:59;0.00;0.00;0.62;0.00;0.00;0.62;3.77;1.90;;;21.30;19.70;;;;;;2276991;61;20389;-64
2021/04/17 08:11:29;0.00;0.00;0.62;0.00;0.00;0.62;3.10;1.97;;;21.40;19.80;;;;;;2277623;60;20354;-63
2021/04/17 08:13:56;0.00;0.00;0.62;0.00;0.00;0.62;2.80;1.73;;;21.40;19.80;;;;;;2277512;61;20385;-62
2021/04/17 08:16:23;0.00;0.00;0.62;0.00;0.00;0.62;3.90;1.80;;;21.40;19.80;;;;;;2276937;61;20355;-67
2021/04/17 08:18:50;0.00;0.00;0.62;0.00;0.00;0.62;2.17;1.93;;;21.40;20.30;;;;;;2277561;60;20354;-61
2021/04/17 08:21:20;0.00;0.00;0.62;0.00;0.00;0.62;2.63;1.60;;;21.40;19.80;;;;;;2277425;61;20380;-66
2021/04/17 08:23:50;0.00;0.00;0.62;0.00;0.00;0.62;2.00;1.67;;;21.40;19.80;;;;;;2277430;61;20419;-63
2021/04/17 08:26:18;0.00;0.00;0.62;0.00;0.00;0.62;2.20;1.67;;;21.50;19.80;;;;;;2277654;61;20691;-65
2021/04/17 08:28:47;0.00;0.00;0.62;0.00;0.00;0.62;2.70;1.70;;;21.40;19.80;;;;;;2277482;61;20365;-64
2021/04/17 08:31:25;0.00;0.00;0.62;0.00;0.00;0.62;2.50;1.50;;;21.50;19.80;;;;;;2277251;61;20351;-66
2021/04/17 08:34:14;0.00;0.00;0.62;0.00;0.00;0.62;1.90;1.53;;;21.50;19.80;;;;;;2277709;60;20370;-63
2021/04/17 08:36:46;0.00;0.00;0.62;0.00;0.00;0.62;1.87;1.43;;;21.50;19.80;;;;;;2278351;61;20685;-65
2021/04/17 08:39:44;0.00;0.00;0.62;0.00;0.00;0.62;2.43;1.60;;;21.50;19.80;;;;;;2277988;61;20691;-63
2021/04/17 08:42:16;0.00;0.00;0.62;0.00;0.00;0.62;1.70;1.57;;;21.50;19.80;;;;;;2278040;60;20394;-63
2021/04/17 08:44:44;0.00;0.00;0.62;0.00;0.00;0.62;2.30;1.70;;;21.50;19.80;;;;;;2278066;61;20356;-64
2021/04/17 08:47:13;0.00;0.00;0.62;0.00;0.00;0.62;2.10;1.70;;;21.50;19.80;;;;;;2277823;61;20357;-65
2021/04/17 08:49:42;0.00;0.00;0.62;0.00;0.00;0.62;1.87;1.57;;;21.50;19.80;;;;;;2278241;61;20357;-62
2021/04/17 08:52:22;0.00;0.00;0.62;0.00;0.00;0.62;2.00;1.80;;;21.60;19.90;;;;;;2277929;61;20708;-61
2021/04/17 08:55:19;0.00;0.00;0.62;0.00;0.00;0.62;1.70;1.33;;;21.60;19.90;;;;;;2277812;61;20377;-67
2021/04/17 08:58:09;0.00;0.00;0.62;0.00;0.00;0.62;1.83;1.50;;;21.60;19.90;;;;;;2265205;61;20362;-63
2021/04/17 09:00:37;0.00;0.00;0.62;0.00;0.00;0.62;3.63;2.53;;;21.60;19.90;;;;;;2277069;61;20687;-65
2021/04/17 09:03:04;0.00;0.00;0.62;0.00;0.00;0.62;2.57;1.80;;;21.60;19.90;;;;;;2278274;61;20434;-66
2021/04/17 09:05:43;0.00;0.00;0.62;0.00;0.00;0.62;1.63;1.53;;;21.60;19.90;;;;;;2278141;60;20445;-64
2021/04/17 09:08:14;0.00;0.00;0.62;0.00;0.00;0.62;2.20;1.90;;;21.60;19.90;;;;;;2277887;61;20353;-64
2021/04/17 09:10:42;0.00;0.00;0.62;0.00;0.00;0.62;2.30;1.63;;;21.70;20.00;;;;;;2278256;61;20366;-64
2021/04/17 09:13:34;0.00;0.00;0.62;0.00;0.00;0.62;1.60;1.20;;;21.60;19.90;;;;;;2278014;60;20367;-62
2021/04/17 09:16:04;0.00;0.00;0.62;0.00;0.00;0.62;1.70;1.40;;;21.70;20.00;;;;;;2277982;60;20407;-63
2021/04/17 09:18:44;0.00;0.00;0.62;0.00;0.00;0.62;2.10;1.47;;;21.70;20.00;;;;;;2278325;61;20585;-63
2021/04/17 09:21:36;0.00;0.00;0.62;0.00;0.00;0.62;2.07;1.60;;;21.70;20.00;;;;;;2277958;61;20377;-65
2021/04/17 09:24:25;0.00;0.00;0.62;0.00;0.00;0.62;2.07;1.70;;;21.70;20.00;;;;;;2278303;61;20614;-64
2021/04/17 09:26:52;0.00;0.00;0.62;0.00;0.00;0.62;1.97;1.40;;;21.70;20.00;;;;;;2277953;60;20367;-66
2021/04/17 09:29:25;0.00;0.00;0.62;0.00;0.00;0.62;2.03;1.77;;;21.70;20.00;;;;;;2277915;61;20385;-62
2021/04/17 09:31:57;0.00;0.00;0.62;0.00;0.00;0.62;2.23;1.40;;;21.80;20.00;;;;;;2277624;60;20347;-65
2021/04/17 09:34:23;0.00;0.00;0.62;0.00;0.00;0.62;2.20;1.90;;;21.90;20.10;;;;;;2278230;61;20700;-64
2021/04/17 09:36:50;0.00;0.00;0.62;0.00;0.00;0.62;2.40;2.00;;;21.80;20.00;;;;;;2277523;61;20395;-66
2021/04/17 09:39:30;0.00;0.00;0.62;0.00;0.00;0.62;2.17;1.70;;;21.90;20.10;;;;;;2278334;61;20363;-65
2021/04/17 09:41:59;0.00;0.00;0.62;0.00;0.00;0.62;3.00;1.90;;;21.90;20.10;;;;;;2277514;61;20719;-67
2021/04/17 09:44:42;0.00;0.00;0.62;0.00;0.00;0.62;2.50;2.03;;;22.00;20.20;;;;;;2277972;61;20714;-63
2021/04/17 09:47:11;0.00;0.00;0.62;0.00;0.00;0.62;2.50;2.17;;;22.00;20.20;;;;;;2278029;61;20364;-68
2021/04/17 09:49:41;0.00;0.00;0.62;0.00;0.00;0.62;1.70;1.40;;;22.00;20.20;;;;;;2278069;61;20485;-67
2021/04/17 09:52:09;0.00;0.00;0.62;0.00;0.00;0.62;2.10;1.73;;;22.00;20.20;;;;;;2277847;61;20361;-66